Pagrindinis puslapis
METAR-TAF:

METAR-TAF

Oro uostai :

Seyresse

Dax, Prancūzija

platuma: 43-41N, ilguma: 001-04W, Aukštis: 32 m

Dabartinis oras

Ataskaita buvo paskelbta 16 minutes, ne 21:30 UTC
Ramus vėjas
Temperatūra 9°C
Drėgmė 71%
Slėgis 1021 hPa
Matomumas: 7000 m

METAR: LFBY 282130Z AUTO 00000KT 7000 // ////// 09/04 Q1021

Laikas: 22:46 (21:46 UTC)


TAF: trūkstamas

Orai ataskaitas ir orų prognozės (METAR, TAF).

turimą stotys yra geltonos ir raudonos taškus žemėlapyje.

Perkelti pele per norėdami pamatyti stoties vardą.

Tada spustelėkite, norėdami matyti oro stebėjimo ir prognozės.

Norėdami pakeisti žemėlapį: spustelėkite ant žalios mygtukų su juodo kryžiaus žemyn,; žalią mygtuką su brūkšneliu, jei norite nutolinti; arba žalių rodyklių gretimoms žemėlapius.


METAR-TAF: